Airfield :
LOGIN :

Register | Disclaimer

   EN    FR    IT 

 










Legend :    VFR   Marginal VFR   IFR   Intensive IFR   Very Intensive IFR
Visi :
Ceiling :
>= 8 km
>= 3000ft
5 to 8 km
1000 to 3000 ft
1500m to 5 km
500 to 1000 ft
800 to 1500m
200 to 500 ft
< 800m
< 200 ft
Symbols :   Thunderstorms  Fog  Heavy snow  Heavy precipitations  Wind > 20 kt
SIGMETs :     Misc.  Thunderstorms  Icing  Turbulence  Mountain Waves  Volcanic Ashes






- Airport Elevation : 370 ft


EBBE - Beauvechain AB

CURRENT METAR :
  • 231525Z AUTO 24007KT 9999 NCD 20/10 Q1015 BLU

EXPIRED METARs :
  • 231455Z AUTO 25007KT 9999 NCD 20/09 Q1015 BLU
  • 231425Z 25009KT 9999 FEW030 20/10 Q1015 BLU FCST CANCEL
  • 231423Z 27009KT 9999 FEW030 20/09 Q1015 BLU FCST CANCEL
  • 231355Z 24009KT 9999 FEW030 20/10 Q1015 BLU BLU
  • 231325Z 25008KT 9999 FEW030 19/10 Q1015 BLU BLU
  • 231255Z 26009KT 9999 FEW030 SCT070 18/11 Q1015 BLU BLU
  • 231225Z 24007KT 9999 FEW025 SCT030 18/11 Q1015 BLU BLU
  • 231155Z 24011KT 9999 FEW025 SCT030 17/11 Q1015 BLU BLU
  • 231125Z 23010KT 9999 FEW025 SCT030 19/11 Q1015 BLU BLU
  • 231055Z 23009KT 9999 FEW025 SCT030 18/11 Q1015 BLU BLU

TAF TAF EBBE
Valid from the 23 at 13:00 until the 23 at 22:00 UTC


231141Z 2313/2322 24008KT 9999 FEW030
TEMPO 2313/2319 23008G18KT 6000 -SHRA SCT030TCU
PROB40
TEMPO 2315/2319 23010G20KT 4000 SHRA BKN025TCU
PROB30
TEMPO 2316/2319 3000 -TSRA BKN022CB



MET'MAP, your aeronautical weather chart ! - Copyright ORBIFLY December 2007 - Disclaimer

ORBIFLY MET'MAP TEAM :

Programming & Development : Alexandra Zaïnal
Original concept : Baudouin d'Aumeries
Technical & hardware support : Manuel Goepfert
Assistance : Marc-Olivier Méhu




SOURCES & CREDITS :

   NOAA